createdAt,value
2022-11-15T00:01:23.537Z,2.60
2022-11-15T00:03:52.141Z,2.43
2022-11-15T00:06:18.695Z,2.73
2022-11-15T00:08:45.257Z,2.30
2022-11-15T00:11:13.173Z,2.30
2022-11-15T00:13:39.868Z,1.97
2022-11-15T00:16:06.689Z,1.90
2022-11-15T00:18:34.613Z,2.40
2022-11-15T00:21:05.280Z,2.17
2022-11-15T00:23:32.113Z,2.17
2022-11-15T00:25:59.718Z,2.43
2022-11-15T00:28:26.787Z,2.30
2022-11-15T00:30:53.624Z,2.50
2022-11-15T00:33:20.179Z,2.57
2022-11-15T00:35:48.155Z,2.70
2022-11-15T00:38:14.672Z,2.40
2022-11-15T00:40:41.366Z,2.33
2022-11-15T00:43:07.863Z,2.30
2022-11-15T00:45:34.452Z,2.63
2022-11-15T00:48:00.980Z,2.67
2022-11-15T00:50:27.576Z,3.20
2022-11-15T00:52:55.472Z,2.70
2022-11-15T00:55:21.995Z,2.77
2022-11-15T00:57:48.538Z,2.60
2022-11-15T01:00:15.565Z,2.70
2022-11-15T01:02:42.087Z,2.43
2022-11-15T01:05:09.262Z,2.93
2022-11-15T01:07:36.337Z,3.00
2022-11-15T01:10:04.893Z,2.57
2022-11-15T01:12:31.484Z,2.70
2022-11-15T01:14:58.068Z,2.87
2022-11-15T01:17:24.931Z,2.50
2022-11-15T01:19:51.486Z,2.60
2022-11-15T01:22:18.045Z,2.90
2022-11-15T01:24:44.596Z,2.70
2022-11-15T01:27:12.536Z,2.57
2022-11-15T01:29:39.089Z,2.77
2022-11-15T01:32:05.694Z,2.73
2022-11-15T01:34:32.249Z,2.63
2022-11-15T01:36:58.823Z,2.67
2022-11-15T01:39:25.613Z,2.40
2022-11-15T01:41:52.194Z,2.87
2022-11-15T01:44:41.395Z,2.97
2022-11-15T01:47:13.019Z,2.47
2022-11-15T01:49:44.499Z,2.27
2022-11-15T01:52:14.152Z,2.40
2022-11-15T01:54:40.959Z,3.10
2022-11-15T01:57:11.418Z,3.50
2022-11-15T01:59:41.524Z,2.53
2022-11-15T02:02:08.143Z,2.70
2022-11-15T02:04:38.952Z,2.70
2022-11-15T02:07:07.258Z,3.30
2022-11-15T02:09:33.893Z,2.77
2022-11-15T02:12:00.939Z,2.50
2022-11-15T02:14:29.058Z,2.30
2022-11-15T02:17:02.362Z,2.80
2022-11-15T02:20:04.475Z,2.30
2022-11-15T02:22:42.361Z,2.07
2022-11-15T02:25:28.122Z,2.93
2022-11-15T02:28:16.988Z,2.67
2022-11-15T02:30:48.593Z,2.20
2022-11-15T02:33:26.554Z,2.20
2022-11-15T02:35:59.056Z,2.00
2022-11-15T02:38:33.898Z,2.03
2022-11-15T02:41:03.816Z,2.40
2022-11-15T02:43:36.043Z,2.30
2022-11-15T02:46:11.065Z,2.07
2022-11-15T02:48:38.222Z,2.80
2022-11-15T02:51:05.512Z,2.40
2022-11-15T02:53:32.387Z,2.20
2022-11-15T02:55:59.186Z,2.40
2022-11-15T02:58:55.858Z,2.40
2022-11-15T03:01:34.860Z,2.50
2022-11-15T03:04:08.952Z,2.50
2022-11-15T03:06:42.146Z,2.67
2022-11-15T03:09:12.509Z,2.37
2022-11-15T03:11:44.531Z,2.20
2022-11-15T03:14:21.781Z,2.17
2022-11-15T03:16:54.933Z,2.07
2022-11-15T03:19:31.048Z,2.10
2022-11-15T03:22:00.839Z,2.03
2022-11-15T03:24:31.431Z,2.40
2022-11-15T03:27:01.428Z,2.53
2022-11-15T03:29:33.042Z,2.50
2022-11-15T03:32:04.579Z,2.63
2022-11-15T03:34:35.819Z,2.50
2022-11-15T03:37:02.558Z,2.50
2022-11-15T03:39:30.011Z,2.60
2022-11-15T03:42:05.777Z,2.30
2022-11-15T03:44:41.081Z,2.40
2022-11-15T03:47:13.495Z,2.43
2022-11-15T03:49:45.820Z,2.70
2022-11-15T03:52:12.663Z,2.60
2022-11-15T03:54:49.258Z,2.57
2022-11-15T03:57:16.592Z,2.70
2022-11-15T03:59:43.281Z,2.47
2022-11-15T04:02:11.287Z,2.60
2022-11-15T04:04:37.788Z,2.47
2022-11-15T04:07:04.676Z,2.37
2022-11-15T04:09:31.265Z,2.03
2022-11-15T04:11:57.910Z,2.83
2022-11-15T04:14:24.445Z,2.83
2022-11-15T04:16:50.972Z,2.70
2022-11-15T04:19:18.882Z,2.83
2022-11-15T04:21:45.395Z,2.37
2022-11-15T04:24:11.923Z,2.20
2022-11-15T04:26:38.562Z,2.30
2022-11-15T04:29:05.098Z,2.87
2022-11-15T04:31:31.673Z,2.50
2022-11-15T04:33:58.277Z,2.73
2022-11-15T04:36:26.338Z,2.63
2022-11-15T04:38:52.850Z,2.50
2022-11-15T04:41:19.400Z,2.47
2022-11-15T04:43:45.911Z,2.33
2022-11-15T04:46:12.445Z,2.47
2022-11-15T04:48:38.952Z,2.53
2022-11-15T04:51:05.771Z,2.63
2022-11-15T04:53:33.974Z,2.57
2022-11-15T04:56:00.808Z,2.33
2022-11-15T04:58:27.362Z,2.90
2022-11-15T05:00:53.945Z,3.23
2022-11-15T05:03:20.591Z,3.00
2022-11-15T05:05:47.111Z,2.10
2022-11-15T05:08:13.663Z,2.47
2022-11-15T05:10:41.582Z,2.47
2022-11-15T05:13:08.123Z,2.40
2022-11-15T05:15:34.673Z,2.13
2022-11-15T05:18:01.252Z,2.47
2022-11-15T05:20:27.845Z,2.70
2022-11-15T05:22:55.142Z,2.27
2022-11-15T05:25:21.712Z,2.67
2022-11-15T05:27:49.704Z,2.80
2022-11-15T05:30:16.863Z,2.40
2022-11-15T05:32:43.776Z,2.10
2022-11-15T05:35:16.330Z,2.60
2022-11-15T05:37:42.847Z,2.53
2022-11-15T05:40:10.027Z,2.17
2022-11-15T05:42:36.738Z,2.30
2022-11-15T05:45:07.046Z,2.70
2022-11-15T05:47:36.042Z,2.53
2022-11-15T05:50:02.855Z,2.67
2022-11-15T05:52:35.668Z,3.00
2022-11-15T05:55:03.512Z,2.63
2022-11-15T05:57:30.077Z,2.47
2022-11-15T05:59:56.666Z,2.80
2022-11-15T06:02:24.699Z,2.40
2022-11-15T06:04:51.284Z,2.40
2022-11-15T06:07:17.903Z,2.67
2022-11-15T06:09:44.469Z,2.50
2022-11-15T06:12:11.004Z,2.43
2022-11-15T06:14:37.548Z,2.60
2022-11-15T06:17:08.563Z,2.60
2022-11-15T06:19:39.026Z,2.63
2022-11-15T06:22:05.552Z,3.00
2022-11-15T06:24:32.084Z,3.57
2022-11-15T06:26:58.598Z,5.10
2022-11-15T06:29:25.132Z,4.30
2022-11-15T06:31:51.671Z,4.90
2022-11-15T06:34:18.209Z,4.83
2022-11-15T06:36:46.100Z,4.23
2022-11-15T06:39:12.823Z,3.90
2022-11-15T06:41:39.373Z,2.87
2022-11-15T06:44:05.885Z,2.50
2022-11-15T06:46:32.442Z,2.80
2022-11-15T06:48:58.972Z,2.90
2022-11-15T06:51:25.525Z,3.40
2022-11-15T06:53:53.431Z,2.50
2022-11-15T06:56:20.006Z,2.80
2022-11-15T06:58:46.786Z,3.20
2022-11-15T07:01:13.557Z,3.53
2022-11-15T07:03:42.393Z,3.80
2022-11-15T07:06:10.185Z,4.53
2022-11-15T07:08:37.337Z,3.90
2022-11-15T07:11:07.653Z,3.50
2022-11-15T07:13:35.884Z,3.57
2022-11-15T07:16:03.512Z,3.47
2022-11-15T07:18:30.447Z,3.10
2022-11-15T07:21:00.927Z,3.17
2022-11-15T07:23:27.452Z,3.20
2022-11-15T07:25:54.004Z,3.87
2022-11-15T07:28:22.047Z,3.97
2022-11-15T07:30:48.712Z,3.43
2022-11-15T07:33:15.225Z,4.10
2022-11-15T07:35:41.767Z,3.63
2022-11-15T07:38:08.314Z,3.50
2022-11-15T07:40:35.119Z,3.57
2022-11-15T07:43:02.336Z,3.40
2022-11-15T07:45:30.703Z,3.93
2022-11-15T07:47:57.275Z,3.83
2022-11-15T07:50:24.743Z,3.83
2022-11-15T07:52:54.997Z,4.07
2022-11-15T07:55:21.600Z,4.10
2022-11-15T07:57:48.162Z,2.93
2022-11-15T08:00:15.830Z,3.67
2022-11-15T08:02:44.055Z,4.10
2022-11-15T08:05:10.666Z,4.07
2022-11-15T08:07:37.316Z,3.67
2022-11-15T08:10:04.414Z,3.30
2022-11-15T08:12:31.071Z,3.60
2022-11-15T08:14:57.657Z,4.23
2022-11-15T08:17:24.247Z,3.90
2022-11-15T08:19:52.210Z,3.20
2022-11-15T08:22:19.111Z,3.70
2022-11-15T08:24:45.767Z,3.47
2022-11-15T08:27:12.375Z,3.60
2022-11-15T08:29:38.917Z,3.80
2022-11-15T08:32:05.746Z,3.80
2022-11-15T08:34:32.267Z,3.50
2022-11-15T08:37:00.137Z,3.80
2022-11-15T08:39:26.681Z,3.60
2022-11-15T08:41:53.193Z,3.83
2022-11-15T08:44:19.837Z,4.27
2022-11-15T08:46:46.544Z,3.67
2022-11-15T08:49:13.076Z,3.60
2022-11-15T08:51:39.773Z,3.43
2022-11-15T08:54:07.950Z,3.80
2022-11-15T08:56:34.517Z,3.10
2022-11-15T08:59:01.079Z,2.63
2022-11-15T09:01:27.661Z,2.50
2022-11-15T09:03:54.178Z,2.57
2022-11-15T09:06:20.741Z,2.87
2022-11-15T09:08:48.407Z,2.33
2022-11-15T09:11:16.743Z,2.80
2022-11-15T09:13:43.367Z,2.93
2022-11-15T09:16:09.875Z,2.43
2022-11-15T09:18:36.438Z,2.90
2022-11-15T09:21:03.170Z,2.80
2022-11-15T09:23:29.724Z,2.80
2022-11-15T09:26:00.350Z,2.40
2022-11-15T09:28:28.571Z,2.47
2022-11-15T09:30:57.625Z,2.57
2022-11-15T09:33:24.188Z,2.47
2022-11-15T09:35:53.894Z,2.27
2022-11-15T09:38:21.228Z,2.50
2022-11-15T09:40:54.497Z,2.20
2022-11-15T09:43:37.075Z,2.93
2022-11-15T09:46:13.724Z,2.17
2022-11-15T09:48:53.278Z,2.43
2022-11-15T09:51:28.366Z,2.10
2022-11-15T09:56:48.214Z,1.93
2022-11-15T09:59:28.206Z,1.87
2022-11-15T10:02:01.382Z,2.00
2022-11-15T10:04:28.526Z,2.27
2022-11-15T10:07:02.382Z,2.17
2022-11-15T10:09:35.084Z,2.50
2022-11-15T10:12:01.708Z,2.80
2022-11-15T10:14:32.085Z,2.67
2022-11-15T10:17:14.897Z,2.40
2022-11-15T10:19:51.946Z,2.00
2022-11-15T10:22:38.448Z,2.37
2022-11-15T10:25:17.115Z,2.13
2022-11-15T10:27:46.494Z,1.83
2022-11-15T10:30:16.826Z,2.30
2022-11-15T10:32:45.285Z,1.90
2022-11-15T10:35:20.946Z,1.90
2022-11-15T10:37:48.374Z,2.10
2022-11-15T10:40:22.006Z,2.00
2022-11-15T10:42:49.356Z,1.80
2022-11-15T10:45:32.019Z,2.10
2022-11-15T10:48:24.805Z,2.00
2022-11-15T10:50:53.374Z,1.67
2022-11-15T10:53:24.902Z,1.70
2022-11-15T10:55:55.933Z,2.07
2022-11-15T10:58:33.683Z,2.17
2022-11-15T11:01:12.808Z,1.63
2022-11-15T11:03:41.481Z,2.10
2022-11-15T11:06:10.813Z,2.10
2022-11-15T11:08:37.542Z,2.00
2022-11-15T11:11:06.134Z,2.00
2022-11-15T11:13:34.345Z,1.80
2022-11-15T11:16:18.276Z,1.60
2022-11-15T11:18:52.727Z,1.67
2022-11-15T11:21:32.966Z,1.70
2022-11-15T11:24:08.983Z,1.70
2022-11-15T11:26:42.763Z,1.60
2022-11-15T11:29:26.698Z,1.80
2022-11-15T11:32:01.965Z,1.37
2022-11-15T11:34:41.324Z,1.70
2022-11-15T11:37:15.743Z,1.70
2022-11-15T11:39:53.690Z,1.80
2022-11-15T11:42:31.146Z,1.47
2022-11-15T11:45:06.239Z,1.47
2022-11-15T11:47:40.389Z,1.80
2022-11-15T11:50:14.000Z,1.40
2022-11-15T11:52:45.830Z,1.30
2022-11-15T11:55:17.287Z,1.57
2022-11-15T11:57:49.218Z,1.47
2022-11-15T12:00:19.605Z,1.70
2022-11-15T12:02:53.968Z,1.30
2022-11-15T12:05:27.972Z,1.60
2022-11-15T12:08:03.279Z,1.70
2022-11-15T12:10:33.287Z,2.17
2022-11-15T12:13:05.188Z,1.90
2022-11-15T12:15:37.423Z,1.50
2022-11-15T12:18:05.464Z,1.83
2022-11-15T12:20:37.360Z,2.03
2022-11-15T12:23:08.726Z,2.90
2022-11-15T12:25:50.151Z,2.83
2022-11-15T12:28:21.954Z,2.27
2022-11-15T12:30:53.641Z,1.90
2022-11-15T12:33:36.974Z,1.80
2022-11-15T12:36:05.475Z,2.23
2022-11-15T12:38:53.244Z,1.63
2022-11-15T12:41:21.000Z,1.87
2022-11-15T12:43:48.977Z,1.77
2022-11-15T12:46:22.689Z,1.70
2022-11-15T12:48:56.821Z,2.80
2022-11-15T12:52:01.553Z,2.67
2022-11-15T12:55:02.616Z,2.03
2022-11-15T12:57:38.340Z,1.70
2022-11-15T13:00:44.267Z,1.50
2022-11-15T13:03:20.519Z,1.83
2022-11-15T13:06:00.543Z,1.60
2022-11-15T13:08:46.609Z,2.70
2022-11-15T13:11:47.533Z,2.63
2022-11-15T13:14:51.339Z,1.73
2022-11-15T13:17:28.030Z,1.90
2022-11-15T13:20:00.086Z,2.77
2022-11-15T13:22:26.864Z,3.30
2022-11-15T13:24:53.551Z,3.20
2022-11-15T13:27:21.646Z,2.30
2022-11-15T13:29:48.353Z,1.73
2022-11-15T13:32:16.741Z,3.30
2022-11-15T13:34:53.498Z,2.20
2022-11-15T13:37:31.386Z,1.97
2022-11-15T13:40:16.707Z,1.50
2022-11-15T13:42:45.874Z,1.93
2022-11-15T13:45:15.940Z,1.80
2022-11-15T13:47:42.529Z,1.93
2022-11-15T13:50:12.475Z,2.30
2022-11-15T13:52:42.370Z,2.13
2022-11-15T13:55:12.850Z,2.27
2022-11-15T13:57:44.785Z,2.07
2022-11-15T14:00:27.809Z,1.80
2022-11-15T14:02:55.131Z,1.77
2022-11-15T14:05:24.168Z,2.30
2022-11-15T14:07:54.986Z,1.90
2022-11-15T14:10:29.104Z,1.70
2022-11-15T14:12:57.537Z,1.80
2022-11-15T14:15:30.920Z,1.63
2022-11-15T14:17:57.585Z,1.63
2022-11-15T14:20:33.270Z,1.60
2022-11-15T14:23:01.402Z,1.77
2022-11-15T14:25:28.909Z,1.73
2022-11-15T14:28:29.787Z,1.97
2022-11-15T14:30:58.712Z,2.17
2022-11-15T14:33:29.307Z,1.87
2022-11-15T14:35:57.092Z,2.03
2022-11-15T14:38:23.827Z,2.70
2022-11-15T14:40:50.699Z,3.27
2022-11-15T14:43:18.647Z,3.30
2022-11-15T14:45:45.194Z,3.60
2022-11-15T14:48:11.901Z,3.47
2022-11-15T14:50:38.744Z,3.27
2022-11-15T14:53:05.546Z,2.60
2022-11-15T14:55:34.115Z,2.80
2022-11-15T14:58:00.901Z,2.83
2022-11-15T15:00:34.758Z,3.10
2022-11-15T15:03:02.805Z,4.00
2022-11-15T15:05:33.698Z,4.73
2022-11-15T15:08:00.605Z,3.13
2022-11-15T15:10:40.029Z,2.20
2022-11-15T15:13:15.697Z,1.93
2022-11-15T15:15:43.630Z,1.80
2022-11-15T15:18:10.215Z,1.70
2022-11-15T15:20:39.521Z,1.60
2022-11-15T15:23:06.607Z,1.50
2022-11-15T15:25:35.805Z,1.60
2022-11-15T15:28:03.123Z,1.53
2022-11-15T15:30:31.053Z,1.33
2022-11-15T15:32:59.030Z,1.37
2022-11-15T15:35:30.090Z,1.30
2022-11-15T15:37:56.698Z,1.60
2022-11-15T15:40:24.675Z,1.73
2022-11-15T15:42:51.410Z,1.50
2022-11-15T15:45:19.349Z,1.50
2022-11-15T15:47:46.824Z,1.67
2022-11-15T15:50:22.004Z,1.70
2022-11-15T15:52:48.841Z,1.70
2022-11-15T15:55:15.432Z,2.07
2022-11-15T15:57:42.030Z,2.47
2022-11-15T16:00:11.104Z,4.73
2022-11-15T16:02:40.476Z,3.20
2022-11-15T16:05:08.318Z,2.47
2022-11-15T16:07:36.636Z,2.93
2022-11-15T16:10:03.745Z,2.90
2022-11-15T16:12:31.488Z,2.50
2022-11-15T16:14:58.076Z,2.43
2022-11-15T16:17:28.974Z,2.70
2022-11-15T16:19:59.463Z,2.93
2022-11-15T16:22:26.106Z,2.57
2022-11-15T16:24:54.080Z,2.73
2022-11-15T16:27:21.282Z,2.70
2022-11-15T16:29:48.124Z,2.40
2022-11-15T16:32:14.961Z,3.37
2022-11-15T16:34:46.149Z,2.90
2022-11-15T16:37:22.512Z,6.30
2022-11-15T16:39:49.237Z,6.10
2022-11-15T16:42:17.224Z,6.80
2022-11-15T16:44:43.783Z,7.50
2022-11-15T16:47:17.371Z,9.80
2022-11-15T16:49:44.155Z,7.93
2022-11-15T16:52:10.804Z,13.33
2022-11-15T16:54:37.353Z,13.37
2022-11-15T16:57:04.142Z,13.37
2022-11-15T16:59:37.078Z,11.27
2022-11-15T17:02:04.838Z,7.20
2022-11-15T17:04:31.406Z,4.80
2022-11-15T17:06:58.027Z,3.70
2022-11-15T17:09:24.610Z,3.73
2022-11-15T17:11:51.320Z,3.67
2022-11-15T17:14:17.941Z,4.03
2022-11-15T17:16:45.850Z,3.73
2022-11-15T17:19:13.703Z,4.40
2022-11-15T17:21:40.270Z,4.63
2022-11-15T17:24:07.724Z,6.30
2022-11-15T17:26:39.153Z,6.20
2022-11-15T17:29:07.239Z,4.60
2022-11-15T17:31:34.375Z,3.10
2022-11-15T17:34:04.089Z,3.30
2022-11-15T17:36:30.680Z,2.93
2022-11-15T17:38:59.727Z,5.27
2022-11-15T17:41:27.099Z,8.90
2022-11-15T17:43:53.626Z,16.20
2022-11-15T17:46:21.177Z,16.03
2022-11-15T17:48:48.584Z,10.63
2022-11-15T17:51:18.219Z,7.80
2022-11-15T17:53:46.538Z,5.10
2022-11-15T17:56:14.619Z,4.43
2022-11-15T17:58:41.736Z,4.00
2022-11-15T18:01:11.685Z,8.47
2022-11-15T18:03:38.901Z,5.77
2022-11-15T18:06:06.652Z,5.30
2022-11-15T18:08:36.432Z,4.57
2022-11-15T18:11:05.213Z,4.10
2022-11-15T18:13:32.251Z,7.47
2022-11-15T18:15:59.025Z,5.40
2022-11-15T18:18:25.572Z,14.37
2022-11-15T18:20:59.712Z,14.63
2022-11-15T18:23:26.258Z,9.90
2022-11-15T18:25:54.174Z,5.60
2022-11-15T18:28:20.755Z,4.97
2022-11-15T18:30:47.322Z,6.73
2022-11-15T18:33:13.958Z,5.90
2022-11-15T18:35:40.506Z,4.80
2022-11-15T18:38:07.058Z,5.00
2022-11-15T18:40:33.605Z,4.67
2022-11-15T18:43:01.669Z,4.70
2022-11-15T18:45:28.259Z,3.83
2022-11-15T18:47:54.849Z,4.00
2022-11-15T18:50:21.437Z,3.53
2022-11-15T18:52:47.996Z,3.50
2022-11-15T18:55:14.703Z,3.73
2022-11-15T18:57:41.260Z,3.80
2022-11-15T19:00:11.126Z,3.50
2022-11-15T19:02:37.671Z,3.20
2022-11-15T19:05:04.661Z,5.43
2022-11-15T19:07:31.357Z,17.67
2022-11-15T19:09:57.950Z,15.47
2022-11-15T19:12:24.502Z,23.53
2022-11-15T19:14:51.058Z,22.93
2022-11-15T19:17:18.996Z,13.80
2022-11-15T19:19:45.509Z,8.37
2022-11-15T19:22:12.038Z,9.83
2022-11-15T19:24:38.631Z,11.43
2022-11-15T19:27:05.177Z,14.07
2022-11-15T19:29:31.735Z,14.93
2022-11-15T19:31:58.302Z,25.53
2022-11-15T19:34:26.235Z,17.13
2022-11-15T19:36:52.801Z,16.20
2022-11-15T19:39:19.376Z,15.60
2022-11-15T19:41:46.105Z,14.13
2022-11-15T19:44:13.353Z,8.00
2022-11-15T19:46:40.780Z,6.57
2022-11-15T19:49:07.828Z,7.17
2022-11-15T19:51:36.214Z,7.73
2022-11-15T19:54:03.397Z,4.80
2022-11-15T19:56:29.922Z,4.50
2022-11-15T19:58:57.004Z,4.37
2022-11-15T20:01:28.182Z,4.63
2022-11-15T20:03:56.952Z,5.00
2022-11-15T20:06:25.877Z,10.53
2022-11-15T20:08:53.867Z,9.33
2022-11-15T20:11:20.625Z,11.37
2022-11-15T20:13:47.331Z,6.40
2022-11-15T20:16:16.221Z,4.70
2022-11-15T20:18:42.889Z,4.57
2022-11-15T20:21:09.693Z,4.67
2022-11-15T20:23:36.309Z,4.00
2022-11-15T20:26:04.503Z,3.53
2022-11-15T20:28:31.401Z,3.73
2022-11-15T20:31:00.071Z,3.57
2022-11-15T20:33:27.209Z,4.20
2022-11-15T20:35:54.070Z,3.87
2022-11-15T20:38:21.336Z,3.90
2022-11-15T20:40:48.727Z,3.73
2022-11-15T20:43:17.972Z,3.80
2022-11-15T20:45:45.305Z,3.77
2022-11-15T20:48:12.057Z,3.77
2022-11-15T20:50:43.329Z,3.40
2022-11-15T20:53:11.587Z,3.93
2022-11-15T20:55:41.783Z,3.70
2022-11-15T20:58:09.105Z,3.63
2022-11-15T21:00:37.371Z,3.20
2022-11-15T21:03:05.255Z,4.57
2022-11-15T21:05:31.855Z,6.70
2022-11-15T21:07:58.364Z,4.40
2022-11-15T21:10:24.913Z,3.57
2022-11-15T21:12:51.868Z,2.83
2022-11-15T21:15:18.403Z,2.90
2022-11-15T21:17:46.342Z,5.00
2022-11-15T21:20:12.912Z,4.83
2022-11-15T21:22:40.147Z,15.40
2022-11-15T21:25:07.203Z,24.33
2022-11-15T21:27:33.741Z,59.30
2022-11-15T21:30:00.288Z,41.03
2022-11-15T21:32:26.860Z,37.00
2022-11-15T21:34:54.778Z,29.13
2022-11-15T21:37:21.325Z,20.03
2022-11-15T21:39:47.853Z,20.63
2022-11-15T21:42:14.366Z,14.73
2022-11-15T21:44:40.895Z,9.80
2022-11-15T21:47:07.429Z,14.17
2022-11-15T21:49:33.961Z,13.83
2022-11-15T21:52:01.895Z,7.97
2022-11-15T21:54:28.403Z,5.50
2022-11-15T21:56:54.957Z,5.27
2022-11-15T21:59:21.500Z,4.27
2022-11-15T22:01:48.025Z,4.10
2022-11-15T22:04:15.168Z,3.70
2022-11-15T22:06:41.904Z,3.10
2022-11-15T22:09:09.806Z,2.90
2022-11-15T22:11:36.553Z,2.40
2022-11-15T22:14:03.165Z,4.67
2022-11-15T22:16:30.498Z,3.60
2022-11-15T22:18:57.454Z,2.93
2022-11-15T22:21:24.089Z,2.20
2022-11-15T22:23:50.703Z,2.20
2022-11-15T22:26:23.450Z,2.10
2022-11-15T22:28:50.941Z,1.90
2022-11-15T22:31:17.639Z,2.13
2022-11-15T22:33:44.421Z,2.20
2022-11-15T22:36:12.660Z,1.80
2022-11-15T22:38:39.426Z,1.97
2022-11-15T22:41:06.581Z,1.70
2022-11-15T22:43:34.933Z,2.20
2022-11-15T22:46:02.923Z,2.13
2022-11-15T22:48:31.603Z,1.53
2022-11-15T22:50:58.844Z,1.90
2022-11-15T22:53:26.128Z,1.70
2022-11-15T22:55:54.920Z,1.80
2022-11-15T22:58:22.892Z,1.90
2022-11-15T23:00:52.581Z,1.40
2022-11-15T23:03:20.430Z,1.67
2022-11-15T23:05:47.774Z,2.03
2022-11-15T23:08:14.434Z,1.77
2022-11-15T23:10:41.321Z,1.80
2022-11-15T23:13:12.254Z,1.83
2022-11-15T23:15:39.064Z,1.97
2022-11-15T23:18:07.169Z,2.00
2022-11-15T23:20:43.132Z,2.10
2022-11-15T23:23:10.698Z,2.10
2022-11-15T23:25:37.374Z,1.73
2022-11-15T23:28:05.069Z,2.00
2022-11-15T23:30:34.117Z,1.80
2022-11-15T23:33:00.756Z,1.87
2022-11-15T23:35:28.760Z,2.63
2022-11-15T23:37:55.395Z,2.00
2022-11-15T23:40:22.058Z,2.40
2022-11-15T23:42:48.646Z,2.70
2022-11-15T23:45:15.501Z,2.20
2022-11-15T23:47:42.135Z,1.90
2022-11-15T23:50:09.376Z,2.20
2022-11-15T23:52:37.366Z,2.43
2022-11-15T23:55:04.407Z,2.10
2022-11-15T23:57:31.033Z,1.97
